Markham, Texas
Current Conditions -  °F | °C
As of 4:53 PM on Friday 28 Nov 2014 (Local Time) from KPSX Reporting Station
Clear Clear  
Wind Chill: 68°   Ceiling: Unl
Heat Index: 68°   Visibility: 10mi
Dew Point: 55°   Wind: 7mph
Humidity: 63%   Direction: 170°S
Pressure: 30.18"   Gusts: NA
Location:  28.96°N, 96.07°W
Report Text: KPSX 282253Z AUTO 17006KT 10SM CLR 20/13 A3018 RMK AO2 SLP217 T02000128
Loading
Personal Weather Stations






























Interactive Weather Map New forecast layout! Learn more

10-Day Weather Forecast

Advertisements
Track Severe Weather on mobile